Time;durP1;ratioP1;P1;durP2;ratioP2;P2;SDS_P1;SDS_P2;PMS_P1;PMS_P2;Temp;Humidity;BMP_temperature;BMP_pressure;BME280_temperature;BME280_humidity;BME280_pressure;Samples;Min_cycle;Max_cycle;Signal;HPM_P1;HPM_P2
2022/12/18 00:00:58;;;;;;;114.53;40.38;;;-3.10;99.90;;;;;;5026764;28;20080;-81
2022/12/18 00:03:25;;;;;;;115.20;41.40;;;-2.80;99.90;;;;;;5071681;28;20065;-81
2022/12/18 00:05:52;;;;;;;111.05;37.33;;;-2.80;99.90;;;;;;5034853;28;20507;-81
2022/12/18 00:08:19;;;;;;;104.15;39.50;;;-3.10;99.90;;;;;;5035887;28;20053;-82
2022/12/18 00:10:45;;;;;;;113.45;41.67;;;-3.30;99.90;;;;;;5017798;28;20064;-82
2022/12/18 00:13:11;;;;;;;121.13;42.58;;;-3.10;99.90;;;;;;5015582;28;20133;-83
2022/12/18 00:15:38;;;;;;;115.82;40.63;;;-2.80;99.90;;;;;;5044672;28;20443;-82
2022/12/18 00:18:04;;;;;;;120.50;40.45;;;-3.00;99.90;;;;;;5032563;28;20440;-83
2022/12/18 00:20:30;;;;;;;112.32;40.17;;;-3.00;99.90;;;;;;5033954;28;20051;-82
2022/12/18 00:22:56;;;;;;;114.95;40.67;;;-3.10;99.90;;;;;;5061812;28;20053;-81
2022/12/18 00:25:22;;;;;;;114.40;39.97;;;-3.00;99.90;;;;;;5019532;28;20044;-82
2022/12/18 00:27:47;;;;;;;127.65;42.20;;;-3.00;99.90;;;;;;5074445;28;20025;-83
2022/12/18 00:30:14;;;;;;;115.80;40.90;;;-3.20;99.90;;;;;;5038581;28;20029;-82
2022/12/18 00:32:40;;;;;;;112.70;38.47;;;-3.20;99.90;;;;;;5034667;28;20075;-82
2022/12/18 00:35:07;;;;;;;116.55;40.80;;;-2.90;99.90;;;;;;5051569;28;20077;-83
2022/12/18 00:37:35;;;;;;;115.38;40.13;;;-2.90;99.90;;;;;;5045355;28;20049;-81
2022/12/18 00:40:02;;;;;;;112.68;39.30;;;-3.20;99.90;;;;;;5067374;28;20069;-83
2022/12/18 00:45:12;;;;;;;111.82;40.88;;;-3.00;99.90;;;;;;5051885;28;20041;-81
2022/12/18 00:47:38;;;;;;;121.53;39.33;;;-3.20;99.90;;;;;;5041563;28;20131;-81
2022/12/18 00:50:04;;;;;;;115.57;39.80;;;-3.20;99.90;;;;;;5049830;28;20037;-81
2022/12/18 00:52:30;;;;;;;118.63;42.15;;;-3.20;99.90;;;;;;5021931;28;20041;-83
2022/12/18 00:54:55;;;;;;;113.88;40.55;;;-2.90;99.90;;;;;;5013960;28;20053;-82
2022/12/18 00:57:21;;;;;;;113.95;40.58;;;-3.10;99.90;;;;;;5031643;28;20045;-81
2022/12/18 00:59:47;;;;;;;124.40;41.72;;;-3.10;99.90;;;;;;5046690;28;20045;-81
2022/12/18 01:02:12;;;;;;;112.47;38.38;;;-3.10;99.90;;;;;;5022011;28;20041;-82
2022/12/18 01:04:38;;;;;;;98.53;37.10;;;-3.30;99.90;;;;;;5045376;28;20495;-82
2022/12/18 01:07:03;;;;;;;95.35;35.80;;;-3.30;99.90;;;;;;5040731;28;20162;-82
2022/12/18 01:13:10;;;;;;;98.40;36.03;;;-3.30;99.90;;;;;;5040232;28;20036;-80
2022/12/18 01:15:36;;;;;;;92.35;36.60;;;-3.10;99.90;;;;;;5047439;28;20052;-81
2022/12/18 01:18:02;;;;;;;94.13;36.45;;;-3.40;99.90;;;;;;5041803;28;20124;-80
2022/12/18 01:20:27;;;;;;;95.28;36.90;;;-3.20;99.90;;;;;;5028223;28;20040;-81
2022/12/18 01:22:53;;;;;;;101.97;36.60;;;-3.20;99.90;;;;;;5043261;28;20084;-80
2022/12/18 01:25:18;;;;;;;86.75;34.20;;;-3.30;99.90;;;;;;5041170;28;20034;-81
2022/12/18 01:27:44;;;;;;;88.70;34.88;;;-3.50;99.90;;;;;;5035073;28;20044;-81
2022/12/18 01:30:10;;;;;;;85.38;33.78;;;-3.30;99.90;;;;;;5058042;28;20041;-82
2022/12/18 01:32:36;;;;;;;93.95;35.38;;;-3.40;99.90;;;;;;5038626;28;20033;-81
2022/12/18 01:35:02;;;;;;;90.07;36.53;;;-3.40;99.90;;;;;;5043009;28;20091;-82
2022/12/18 01:37:27;;;;;;;91.32;35.60;;;-3.80;99.90;;;;;;5028600;28;20076;-82
2022/12/18 01:39:54;;;;;;;94.97;35.63;;;-3.80;99.90;;;;;;5026091;28;20071;-81
2022/12/18 01:42:21;;;;;;;99.72;35.65;;;-3.90;99.90;;;;;;5026950;28;20413;-81
2022/12/18 01:44:58;;;;;;;100.50;36.10;;;-3.90;99.90;;;;;;5046822;28;20044;-82
2022/12/18 01:47:24;;;;;;;105.25;36.15;;;-3.70;99.90;;;;;;5042385;28;20039;-81
2022/12/18 01:49:50;;;;;;;106.57;37.35;;;-3.80;99.90;;;;;;5041516;28;20029;-81
2022/12/18 01:52:17;;;;;;;119.25;38.90;;;-3.80;99.90;;;;;;5028917;28;20068;-81
2022/12/18 01:54:44;;;;;;;107.93;36.50;;;-3.90;99.90;;;;;;5041547;28;20041;-81
2022/12/18 01:57:09;;;;;;;104.30;37.55;;;-3.80;99.90;;;;;;5036708;28;20049;-81
2022/12/18 01:59:36;;;;;;;103.10;36.85;;;-3.90;99.90;;;;;;5031603;28;20128;-82
2022/12/18 02:02:03;;;;;;;105.07;36.60;;;-4.10;99.90;;;;;;5023454;28;20095;-81
2022/12/18 02:04:29;;;;;;;95.40;35.05;;;-4.20;99.90;;;;;;5034058;28;20132;-82
2022/12/18 02:07:28;;;;;;;96.15;35.25;;;-4.10;99.90;;;;;;5052234;28;20075;-82
2022/12/18 02:10:19;;;;;;;97.47;34.70;;;-4.30;99.90;;;;;;5051718;28;20079;-81
2022/12/18 02:12:56;;;;;;;99.57;35.30;;;-4.30;99.90;;;;;;5037329;28;20054;-81
2022/12/18 02:15:48;;;;;;;95.93;34.22;;;-4.40;99.90;;;;;;5049914;28;20067;-81
2022/12/18 02:18:21;;;;;;;100.43;34.72;;;-4.20;99.90;;;;;;5051977;28;20045;-82
2022/12/18 02:20:59;;;;;;;97.85;33.78;;;-4.50;99.90;;;;;;5053018;28;20056;-79
2022/12/18 02:23:35;;;;;;;88.57;32.70;;;-4.60;99.90;;;;;;5039517;28;20037;-80
2022/12/18 02:26:20;;;;;;;96.35;35.33;;;-4.30;99.90;;;;;;5062588;28;20143;-81
2022/12/18 02:29:02;;;;;;;94.77;35.40;;;-4.40;99.90;;;;;;5039780;28;20037;-80
2022/12/18 02:31:35;;;;;;;94.43;35.03;;;-4.60;99.90;;;;;;5037148;28;20041;-81
2022/12/18 02:34:05;;;;;;;94.10;34.42;;;-4.50;99.90;;;;;;5045208;28;20029;-83
2022/12/18 02:36:33;;;;;;;100.38;35.28;;;-4.70;99.90;;;;;;5039791;28;20037;-80
2022/12/18 02:39:01;;;;;;;100.53;35.30;;;-4.60;99.90;;;;;;5012798;28;20656;-81
2022/12/18 02:41:28;;;;;;;92.85;33.53;;;-4.60;99.90;;;;;;5027567;28;20495;-80
2022/12/18 02:43:57;;;;;;;102.68;36.03;;;-4.80;99.90;;;;;;5055376;28;20431;-81
2022/12/18 02:46:31;;;;;;;104.40;35.88;;;-4.70;99.90;;;;;;5021047;28;20045;-81
2022/12/18 02:49:09;;;;;;;103.68;35.83;;;-4.60;99.90;;;;;;5050752;28;20152;-80
2022/12/18 02:51:51;;;;;;;100.13;34.67;;;-4.60;99.90;;;;;;5034366;28;20034;-80
2022/12/18 02:54:49;;;;;;;96.70;33.55;;;-4.60;99.90;;;;;;5039229;28;20069;-82
2022/12/18 02:57:24;;;;;;;102.80;36.38;;;-4.80;99.90;;;;;;5038747;28;20637;-80
2022/12/18 02:59:58;;;;;;;95.93;34.55;;;-4.80;99.90;;;;;;5043592;28;20041;-80
2022/12/18 03:02:59;;;;;;;109.20;35.97;;;-4.90;99.90;;;;;;5067018;28;20137;-80
2022/12/18 03:05:36;;;;;;;108.97;36.30;;;-4.70;99.90;;;;;;5040760;28;20045;-80
2022/12/18 03:08:08;;;;;;;107.35;35.60;;;-4.80;99.90;;;;;;5054549;28;20029;-82
2022/12/18 03:10:42;;;;;;;107.22;35.67;;;-4.90;99.90;;;;;;5040129;28;20050;-80
2022/12/18 03:13:16;;;;;;;102.90;35.33;;;-4.60;99.90;;;;;;5039947;28;20153;-81
2022/12/18 03:15:46;;;;;;;116.53;39.28;;;-4.80;99.90;;;;;;5039834;28;20320;-80
2022/12/18 03:18:18;;;;;;;107.55;36.95;;;-4.80;99.90;;;;;;5069051;28;20123;-80
2022/12/18 03:20:47;;;;;;;112.70;38.17;;;-4.70;99.90;;;;;;5025640;28;20084;-82
2022/12/18 03:23:17;;;;;;;108.97;37.42;;;-4.60;99.90;;;;;;5066797;28;20115;-81
2022/12/18 03:25:44;;;;;;;113.90;37.60;;;-4.80;99.90;;;;;;5042641;28;20037;-82
2022/12/18 03:28:15;;;;;;;113.90;37.78;;;-4.70;99.90;;;;;;5026976;28;20115;-81
2022/12/18 03:30:44;;;;;;;111.88;37.97;;;-4.60;99.90;;;;;;5041680;28;20136;-80
2022/12/18 03:33:39;;;;;;;117.72;39.45;;;-4.90;99.90;;;;;;5022707;28;20399;-80
2022/12/18 03:36:06;;;;;;;110.68;38.85;;;-4.90;99.90;;;;;;5067594;28;20396;-82
2022/12/18 03:38:31;;;;;;;107.45;36.33;;;-5.00;99.90;;;;;;5044292;28;20398;-80
2022/12/18 03:41:19;;;;;;;116.82;38.58;;;-4.90;99.90;;;;;;5040777;28;20529;-80
2022/12/18 03:44:14;;;;;;;110.85;37.80;;;-4.80;99.90;;;;;;5048135;28;20384;-83
2022/12/18 03:47:37;;;;;;;113.28;37.33;;;-4.90;99.90;;;;;;5073098;28;20041;-82
2022/12/18 03:50:39;;;;;;;109.78;36.30;;;-4.90;99.90;;;;;;5015499;28;20050;-82
2022/12/18 03:53:34;;;;;;;112.97;37.70;;;-5.20;99.90;;;;;;4880765;29;20179;-80
2022/12/18 03:56:22;;;;;;;104.32;36.28;;;-4.90;99.90;;;;;;4882772;29;20713;-79
2022/12/18 03:58:50;;;;;;;104.18;36.58;;;-4.90;99.90;;;;;;4893051;29;20044;-80
2022/12/18 04:01:17;;;;;;;104.80;37.25;;;-4.90;99.90;;;;;;4896830;29;20136;-80
2022/12/18 04:03:44;;;;;;;100.93;37.45;;;-5.30;99.90;;;;;;4911571;29;20132;-81
2022/12/18 04:06:11;;;;;;;113.30;38.00;;;-5.00;99.90;;;;;;4899988;29;20535;-81
2022/12/18 04:08:39;;;;;;;104.30;37.70;;;-5.20;99.90;;;;;;4898720;29;20385;-81
2022/12/18 04:11:06;;;;;;;104.10;36.75;;;-5.20;99.90;;;;;;4884914;29;20116;-81
2022/12/18 04:13:36;;;;;;;100.60;35.63;;;-5.30;99.90;;;;;;4913237;29;20052;-81
2022/12/18 04:16:03;;;;;;;104.47;35.83;;;-5.00;99.90;;;;;;4880108;29;20083;-82
2022/12/18 04:18:29;;;;;;;111.65;38.58;;;-5.10;99.90;;;;;;4894808;29;20700;-82
2022/12/18 04:20:55;;;;;;;101.88;36.67;;;-5.20;99.90;;;;;;4896237;29;20066;-80
2022/12/18 04:23:21;;;;;;;99.28;34.55;;;-5.00;99.90;;;;;;4898906;29;20056;-80
2022/12/18 04:25:49;;;;;;;102.15;35.38;;;-5.20;99.90;;;;;;4904310;29;20059;-80
2022/12/18 04:28:15;;;;;;;103.20;35.95;;;-5.00;99.90;;;;;;4921629;29;20395;-81
2022/12/18 04:30:42;;;;;;;104.65;35.92;;;-5.00;99.90;;;;;;4995651;28;20045;-81
2022/12/18 04:33:12;;;;;;;101.75;35.72;;;-5.10;99.90;;;;;;5053032;28;20128;-80
2022/12/18 04:35:39;;;;;;;103.57;35.80;;;-5.30;99.90;;;;;;5035214;28;20459;-80
2022/12/18 04:38:08;;;;;;;98.40;35.63;;;-5.30;99.90;;;;;;5050737;28;20048;-80
2022/12/18 04:40:36;;;;;;;101.18;35.78;;;-5.20;99.90;;;;;;5069401;28;20140;-81
2022/12/18 04:43:02;;;;;;;95.78;35.30;;;-5.30;99.90;;;;;;5046991;28;20033;-81
2022/12/18 04:45:27;;;;;;;97.55;35.42;;;-5.30;99.90;;;;;;5027368;28;20092;-81
2022/12/18 04:47:53;;;;;;;106.32;35.30;;;-5.20;99.90;;;;;;5045488;28;20088;-82
2022/12/18 04:50:19;;;;;;;97.18;35.08;;;-5.30;99.90;;;;;;5045588;28;20034;-81
2022/12/18 04:52:44;;;;;;;100.53;34.45;;;-5.30;99.90;;;;;;5042442;28;20087;-81
2022/12/18 04:55:10;;;;;;;99.93;36.35;;;-5.40;99.90;;;;;;5054337;28;20124;-82
2022/12/18 04:57:35;;;;;;;102.60;34.60;;;-5.20;99.90;;;;;;5032143;28;20044;-82
2022/12/18 05:00:01;;;;;;;100.38;34.50;;;-5.20;99.90;;;;;;5032500;28;20464;-81
2022/12/18 05:02:27;;;;;;;98.57;34.17;;;-5.20;99.90;;;;;;5027546;28;20488;-79
2022/12/18 05:04:53;;;;;;;95.80;33.78;;;-5.20;99.90;;;;;;5044508;28;20152;-81
2022/12/18 05:07:18;;;;;;;102.70;34.33;;;-5.30;99.90;;;;;;5065118;28;20037;-81
2022/12/18 05:09:44;;;;;;;103.55;34.80;;;-5.40;99.90;;;;;;5050063;28;20099;-81
2022/12/18 05:12:10;;;;;;;105.90;35.28;;;-5.40;99.90;;;;;;5039299;28;20726;-82
2022/12/18 05:14:35;;;;;;;101.25;33.78;;;-5.60;99.90;;;;;;5043997;28;20080;-80
2022/12/18 05:17:01;;;;;;;92.75;32.47;;;-5.50;99.90;;;;;;5044109;28;20036;-81
2022/12/18 05:19:27;;;;;;;93.22;32.38;;;-5.50;99.90;;;;;;5025318;28;20514;-81
2022/12/18 05:21:52;;;;;;;103.00;34.70;;;-5.40;99.90;;;;;;5059235;28;20538;-81
2022/12/18 05:24:18;;;;;;;99.57;33.10;;;-5.40;99.90;;;;;;5026848;28;20033;-81
2022/12/18 05:26:44;;;;;;;99.95;32.90;;;-5.40;99.90;;;;;;5029907;28;20445;-80
2022/12/18 05:29:12;;;;;;;96.75;32.85;;;-5.50;99.90;;;;;;5027419;28;20033;-80
2022/12/18 05:31:38;;;;;;;106.03;33.92;;;-5.40;99.90;;;;;;5036688;28;20053;-81
2022/12/18 05:34:05;;;;;;;101.10;32.97;;;-5.40;99.90;;;;;;5024108;28;20048;-81
2022/12/18 05:36:30;;;;;;;94.63;31.92;;;-5.50;99.90;;;;;;5045040;28;20068;-80
2022/12/18 05:38:56;;;;;;;99.78;33.95;;;-5.60;99.90;;;;;;5045765;28;20142;-81
2022/12/18 05:41:22;;;;;;;94.35;32.70;;;-5.40;99.90;;;;;;5022558;28;20036;-80
2022/12/18 05:43:47;;;;;;;88.75;32.13;;;-5.70;99.90;;;;;;5039738;28;20033;-81
2022/12/18 05:46:17;;;;;;;94.25;31.80;;;-5.70;99.90;;;;;;5065616;28;20500;-80
2022/12/18 05:48:44;;;;;;;94.47;32.65;;;-5.50;99.90;;;;;;5037600;28;20064;-81
2022/12/18 05:51:14;;;;;;;88.55;31.08;;;-5.60;99.90;;;;;;5037120;28;20152;-81
2022/12/18 05:53:40;;;;;;;97.43;32.53;;;-5.50;99.90;;;;;;5039711;28;20166;-80
2022/12/18 05:56:16;;;;;;;97.28;33.97;;;-5.60;99.90;;;;;;5026205;28;20041;-79
2022/12/18 05:58:42;;;;;;;86.68;31.95;;;-5.70;99.90;;;;;;5083335;28;20045;-80
2022/12/18 06:01:20;;;;;;;88.50;31.58;;;-5.60;99.90;;;;;;5021375;28;20041;-80
2022/12/18 06:03:46;;;;;;;87.10;30.73;;;-5.60;99.90;;;;;;5046504;28;20037;-81
2022/12/18 06:06:18;;;;;;;92.13;31.38;;;-5.60;99.90;;;;;;5049218;28;20118;-81
2022/12/18 06:08:44;;;;;;;88.65;30.88;;;-5.80;99.90;;;;;;5042331;28;20067;-81
2022/12/18 06:14:51;;;;;;;85.82;31.33;;;-5.60;99.90;;;;;;5039690;28;20393;-80
2022/12/18 06:17:16;;;;;;;88.70;29.27;;;-5.80;99.90;;;;;;5046780;28;20057;-79
2022/12/18 06:19:42;;;;;;;83.45;30.70;;;-5.80;99.90;;;;;;5030083;28;20321;-82
2022/12/18 06:22:07;;;;;;;75.93;29.63;;;-5.80;99.90;;;;;;5030739;28;20115;-80
2022/12/18 06:24:33;;;;;;;86.95;30.58;;;-5.70;99.90;;;;;;5033679;28;20060;-82
2022/12/18 06:26:59;;;;;;;82.63;30.92;;;-5.90;99.90;;;;;;5059364;28;20045;-82
2022/12/18 06:29:24;;;;;;;89.75;30.30;;;-5.80;99.90;;;;;;5018511;28;20037;-81
2022/12/18 06:31:50;;;;;;;84.13;29.77;;;-5.90;99.90;;;;;;5075998;28;20033;-79
2022/12/18 06:34:16;;;;;;;85.22;28.65;;;-5.90;99.90;;;;;;5046086;28;20143;-81
2022/12/18 06:36:41;;;;;;;82.28;29.55;;;-5.80;99.90;;;;;;5040185;28;20071;-80
2022/12/18 06:39:07;;;;;;;76.10;28.02;;;-5.80;99.90;;;;;;5037946;28;20059;-81
2022/12/18 06:41:32;;;;;;;83.30;28.08;;;-5.80;99.90;;;;;;5042852;28;20492;-81
2022/12/18 06:43:58;;;;;;;73.38;27.80;;;-5.80;99.90;;;;;;5072565;28;20077;-81
2022/12/18 06:46:24;;;;;;;75.93;27.50;;;-5.90;99.90;;;;;;5042976;28;20053;-80
2022/12/18 06:48:50;;;;;;;72.55;27.15;;;-5.80;99.90;;;;;;5037827;28;20036;-80
2022/12/18 06:51:18;;;;;;;74.13;27.83;;;-6.00;99.90;;;;;;5024243;28;20425;-80
2022/12/18 06:53:43;;;;;;;72.20;27.70;;;-6.00;99.90;;;;;;5032698;28;20052;-82
2022/12/18 06:56:09;;;;;;;66.95;26.15;;;-6.00;99.90;;;;;;5032204;28;20326;-80
2022/12/18 06:58:35;;;;;;;63.80;26.13;;;-6.00;99.90;;;;;;5023673;28;20038;-80
2022/12/18 07:01:03;;;;;;;69.70;26.33;;;-5.90;99.90;;;;;;5019283;28;20037;-80
2022/12/18 07:03:29;;;;;;;64.25;25.65;;;-5.90;99.90;;;;;;5040760;28;20060;-80
2022/12/18 07:05:54;;;;;;;73.03;25.30;;;-5.90;99.90;;;;;;5041296;28;20344;-81
2022/12/18 07:08:20;;;;;;;62.83;24.77;;;-5.70;99.90;;;;;;5071247;28;20495;-80
2022/12/18 07:14:27;;;;;;;62.35;25.17;;;-5.90;99.90;;;;;;5026549;28;20114;-80
2022/12/18 07:16:53;;;;;;;62.58;24.38;;;-5.90;99.90;;;;;;5028230;28;20052;-81
2022/12/18 07:19:18;;;;;;;58.97;25.33;;;-5.90;99.90;;;;;;5025420;28;20033;-80
2022/12/18 07:21:44;;;;;;;60.03;24.10;;;-5.80;99.90;;;;;;5032848;28;20116;-81
2022/12/18 07:24:10;;;;;;;59.38;23.88;;;-5.80;99.90;;;;;;5030493;28;20045;-81
2022/12/18 07:27:12;;;;;;;57.97;23.60;;;-5.80;99.90;;;;;;5046677;28;20049;-81
2022/12/18 07:29:38;;;;;;;55.63;23.50;;;-5.70;99.90;;;;;;5068690;28;20459;-81
2022/12/18 07:32:04;;;;;;;60.65;23.80;;;-5.70;99.90;;;;;;5047537;28;20102;-79
2022/12/18 07:34:30;;;;;;;56.67;23.25;;;-5.70;99.90;;;;;;5046296;28;20045;-81
2022/12/18 07:36:55;;;;;;;55.10;23.55;;;-5.80;99.90;;;;;;5047758;28;20033;-80
2022/12/18 07:39:21;;;;;;;53.00;23.02;;;-5.80;99.90;;;;;;5044306;28;20128;-81
2022/12/18 07:45:28;;;;;;;54.47;22.90;;;-5.80;99.90;;;;;;5040481;28;20152;-82
2022/12/18 07:47:53;;;;;;;55.08;22.92;;;-5.60;99.90;;;;;;5049947;28;20116;-81
2022/12/18 07:50:19;;;;;;;58.53;21.98;;;-5.80;99.90;;;;;;5025072;28;20037;-78
2022/12/18 07:52:44;;;;;;;51.70;23.58;;;-5.80;99.90;;;;;;5029810;28;20431;-80
2022/12/18 07:55:13;;;;;;;49.97;22.23;;;-5.60;99.90;;;;;;5039623;28;20040;-81
2022/12/18 07:57:39;;;;;;;53.83;23.27;;;-5.60;99.90;;;;;;5044761;28;20045;-81
2022/12/18 08:00:05;;;;;;;55.72;23.90;;;-5.50;99.90;;;;;;5043419;28;20057;-80
2022/12/18 08:02:31;;;;;;;50.03;22.58;;;-5.70;99.90;;;;;;5040679;28;20048;-82
2022/12/18 08:04:57;;;;;;;51.90;23.02;;;-5.50;99.90;;;;;;5025340;28;20037;-82
2022/12/18 08:07:23;;;;;;;55.53;23.50;;;-5.60;99.90;;;;;;5029362;28;20049;-80
2022/12/18 08:09:49;;;;;;;58.47;24.85;;;-5.60;99.90;;;;;;5044334;28;20041;-80
2022/12/18 08:12:14;;;;;;;53.47;23.08;;;-5.40;99.90;;;;;;5037166;28;20156;-78
2022/12/18 08:14:41;;;;;;;52.85;23.25;;;-5.40;99.90;;;;;;5027362;28;20388;-80
2022/12/18 08:17:07;;;;;;;47.58;22.92;;;-5.40;99.90;;;;;;5046914;28;20041;-80
2022/12/18 08:19:33;;;;;;;51.28;22.70;;;-5.40;99.90;;;;;;5050306;28;20146;-82
2022/12/18 08:21:58;;;;;;;43.58;21.02;;;-5.50;99.90;;;;;;5072239;28;20041;-79
2022/12/18 08:24:24;;;;;;;46.10;20.77;;;-5.30;99.90;;;;;;5023953;28;20037;-80
2022/12/18 08:26:50;;;;;;;45.83;20.58;;;-5.40;99.90;;;;;;5034658;28;20664;-79
2022/12/18 08:29:16;;;;;;;42.90;20.60;;;-5.20;99.90;;;;;;5014821;28;20092;-83
2022/12/18 08:31:41;;;;;;;44.00;20.35;;;-5.40;99.90;;;;;;5031039;28;20061;-78
2022/12/18 08:34:08;;;;;;;46.08;20.85;;;-5.30;99.90;;;;;;5037428;28;20036;-77
2022/12/18 08:36:34;;;;;;;40.80;20.52;;;-5.10;99.90;;;;;;5022303;28;20091;-79
2022/12/18 08:39:00;;;;;;;47.00;21.90;;;-5.20;99.90;;;;;;5034269;28;20048;-78
2022/12/18 08:41:26;;;;;;;43.53;21.17;;;-5.00;99.90;;;;;;5021127;28;20511;-80
2022/12/18 08:46:39;;;;;;;41.28;20.15;;;-5.10;99.90;;;;;;5041240;28;20087;-79
2022/12/18 08:49:05;;;;;;;43.50;20.27;;;-5.00;99.90;;;;;;5063317;28;20051;-81
2022/12/18 08:51:32;;;;;;;47.50;22.75;;;-4.80;99.90;;;;;;5047877;28;20160;-81
2022/12/18 08:53:57;;;;;;;43.25;20.48;;;-4.90;99.90;;;;;;5030422;28;20629;-78
2022/12/18 08:56:25;;;;;;;44.05;20.50;;;-4.90;99.90;;;;;;5029787;28;20053;-78
2022/12/18 08:58:54;;;;;;;42.08;20.55;;;-4.80;99.90;;;;;;5034684;28;20049;-80
2022/12/18 09:01:22;;;;;;;42.83;20.23;;;-4.80;99.90;;;;;;5036690;28;20091;-81
2022/12/18 09:03:51;;;;;;;40.13;19.98;;;-4.90;99.90;;;;;;5034241;28;20908;-81
2022/12/18 09:06:18;;;;;;;39.63;20.40;;;-4.70;99.90;;;;;;5051884;28;20098;-80
2022/12/18 09:08:45;;;;;;;37.80;18.90;;;-4.70;99.90;;;;;;5062613;28;20056;-81
2022/12/18 09:11:22;;;;;;;44.60;20.48;;;-4.60;99.90;;;;;;5018415;28;20099;-80
2022/12/18 09:13:48;;;;;;;37.83;19.50;;;-4.60;99.90;;;;;;5032600;28;20037;-79
2022/12/18 09:16:15;;;;;;;38.92;19.40;;;-4.70;99.90;;;;;;5036308;28;20069;-79
2022/12/18 09:18:41;;;;;;;42.47;19.42;;;-4.50;99.90;;;;;;5033920;28;20085;-79
2022/12/18 09:21:12;;;;;;;37.38;18.55;;;-4.50;99.90;;;;;;5024435;28;20962;-82
2022/12/18 09:23:37;;;;;;;38.78;19.92;;;-4.40;99.90;;;;;;5043756;28;20033;-83
2022/12/18 09:26:42;;;;;;;42.60;20.42;;;-4.50;99.90;;;;;;5037771;28;20384;-81
2022/12/18 09:29:07;;;;;;;37.47;18.85;;;-4.30;99.90;;;;;;5037148;28;20556;-80
2022/12/18 09:31:33;;;;;;;36.75;18.70;;;-4.40;99.90;;;;;;5035432;28;20128;-83
2022/12/18 09:33:59;;;;;;;39.58;18.38;;;-4.30;99.90;;;;;;5035446;28;20041;-80
2022/12/18 09:36:25;;;;;;;38.38;19.60;;;-4.20;99.90;;;;;;5035017;28;20060;-81
2022/12/18 09:38:51;;;;;;;37.72;19.33;;;-4.20;99.90;;;;;;5033862;28;20049;-80
2022/12/18 09:41:56;;;;;;;37.60;19.13;;;-4.20;99.90;;;;;;5045180;28;20095;-79
2022/12/18 09:44:32;;;;;;;33.30;18.70;;;-4.10;99.90;;;;;;5003215;28;20065;-81
2022/12/18 09:47:10;;;;;;;35.17;18.00;;;-4.00;99.90;;;;;;4990345;28;20066;-80
2022/12/18 09:49:42;;;;;;;31.90;18.23;;;-3.90;99.90;;;;;;4993785;28;20457;-79
2022/12/18 09:52:23;;;;;;;30.38;16.48;;;-4.00;99.90;;;;;;5002420;28;20402;-81
2022/12/18 09:55:00;;;;;;;33.50;17.13;;;-4.00;99.90;;;;;;4995673;28;20064;-78
2022/12/18 09:57:26;;;;;;;30.00;16.80;;;-4.00;99.90;;;;;;5000555;28;20097;-82
2022/12/18 10:00:06;;;;;;;34.60;17.05;;;-3.90;99.90;;;;;;4989567;28;20049;-79
2022/12/18 10:02:32;;;;;;;38.50;16.30;;;-3.90;99.90;;;;;;5006233;28;20067;-80
2022/12/18 10:05:10;;;;;;;32.53;17.27;;;-3.90;99.90;;;;;;5021110;28;20077;-81
2022/12/18 10:07:46;;;;;;;28.58;16.27;;;-3.90;99.90;;;;;;5007879;28;20069;-80
2022/12/18 10:10:46;;;;;;;31.58;17.50;;;-3.90;99.90;;;;;;5018760;28;20060;-81
2022/12/18 10:13:34;;;;;;;34.10;17.20;;;-3.90;99.90;;;;;;5016879;28;20056;-81
2022/12/18 10:16:13;;;;;;;30.98;16.50;;;-4.00;99.90;;;;;;5005417;28;20523;-81
2022/12/18 10:18:57;;;;;;;32.60;17.42;;;-4.00;99.90;;;;;;4987055;28;20107;-78
2022/12/18 10:21:33;;;;;;;32.47;16.65;;;-3.90;99.90;;;;;;5031596;28;20053;-79
2022/12/18 10:24:16;;;;;;;32.95;16.92;;;-3.90;99.90;;;;;;5030458;28;20033;-78
2022/12/18 10:26:43;;;;;;;36.92;17.20;;;-3.90;99.90;;;;;;5034931;28;20192;-78
2022/12/18 10:29:13;;;;;;;31.80;17.17;;;-3.80;99.90;;;;;;5011414;28;20045;-80
2022/12/18 10:31:39;;;;;;;28.50;15.32;;;-3.70;99.90;;;;;;5015868;28;21530;-81
2022/12/18 10:34:08;;;;;;;27.13;15.85;;;-3.70;99.90;;;;;;5050362;28;20052;-80
2022/12/18 10:36:34;;;;;;;26.20;14.25;;;-3.60;99.90;;;;;;5041343;28;20045;-80
2022/12/18 10:39:24;;;;;;;26.65;13.77;;;-3.70;99.90;;;;;;5038979;28;20041;-80
2022/12/18 10:41:51;;;;;;;32.17;14.43;;;-3.60;99.90;;;;;;5035696;28;20124;-80
2022/12/18 10:44:17;;;;;;;24.08;13.23;;;-3.60;99.90;;;;;;5020131;28;20045;-80
2022/12/18 10:46:45;;;;;;;25.20;14.13;;;-3.60;99.90;;;;;;5024657;28;20358;-80
2022/12/18 10:49:42;;;;;;;23.90;13.82;;;-3.60;99.90;;;;;;5035489;28;20036;-81
2022/12/18 10:52:18;;;;;;;23.20;12.85;;;-3.50;99.90;;;;;;5034492;28;20155;-79
2022/12/18 10:55:03;;;;;;;21.98;12.48;;;-3.50;99.90;;;;;;5034663;28;20034;-80
2022/12/18 10:57:30;;;;;;;26.27;13.40;;;-3.50;99.90;;;;;;5054311;28;20037;-80
2022/12/18 10:59:58;;;;;;;25.92;12.50;;;-3.30;99.90;;;;;;5040452;28;20041;-79
2022/12/18 11:02:35;;;;;;;17.77;11.00;;;-3.30;99.90;;;;;;5071508;28;20041;-78
2022/12/18 11:05:02;;;;;;;20.77;11.40;;;-3.20;99.90;;;;;;5050658;28;20044;-80
2022/12/18 11:07:48;;;;;;;19.15;11.32;;;-3.20;99.90;;;;;;5053022;28;20864;-80
2022/12/18 11:10:19;;;;;;;18.27;10.63;;;-3.20;99.90;;;;;;5044635;28;20040;-78
2022/12/18 11:16:21;;;;;;;17.05;10.73;;;-3.00;99.90;;;;;;5041619;28;20045;-79
2022/12/18 11:18:46;;;;;;;16.83;9.85;;;-3.00;99.90;;;;;;5034750;28;20140;-78
2022/12/18 11:21:16;;;;;;;14.75;9.65;;;-2.70;99.90;;;;;;5042442;28;20540;-80
2022/12/18 11:23:53;;;;;;;14.90;10.35;;;-2.80;99.90;;;;;;5041116;28;20037;-79
2022/12/18 11:26:18;;;;;;;17.63;9.98;;;-2.80;99.90;;;;;;5033176;28;20044;-79
2022/12/18 11:29:07;;;;;;;17.27;9.52;;;-2.70;99.90;;;;;;5021142;28;21656;-79
2022/12/18 11:31:33;;;;;;;17.42;9.52;;;-2.70;99.90;;;;;;5042200;28;20126;-79
2022/12/18 11:34:10;;;;;;;17.25;9.77;;;-2.80;99.90;;;;;;5032224;28;20152;-80
2022/12/18 11:36:42;;;;;;;20.25;10.50;;;-2.70;99.90;;;;;;5048228;28;20049;-80
2022/12/18 11:39:19;;;;;;;17.67;10.27;;;-2.70;99.90;;;;;;5041106;28;20120;-78
2022/12/18 11:42:10;;;;;;;19.58;9.80;;;-2.60;99.90;;;;;;5057776;28;20403;-79
2022/12/18 11:44:44;;;;;;;14.27;9.15;;;-2.60;99.90;;;;;;5078022;28;20055;-80
2022/12/18 11:47:18;;;;;;;14.30;9.25;;;-2.50;99.90;;;;;;5053205;28;20037;-80
2022/12/18 11:49:47;;;;;;;13.98;8.60;;;-2.50;99.90;;;;;;5018343;28;20041;-80
2022/12/18 11:52:27;;;;;;;13.20;8.13;;;-2.50;99.90;;;;;;5032778;28;20064;-80
2022/12/18 11:55:01;;;;;;;15.18;8.60;;;-2.50;99.90;;;;;;5042729;28;20033;-80
2022/12/18 11:57:47;;;;;;;14.00;7.68;;;-2.40;99.90;;;;;;5049454;28;20132;-81
2022/12/18 12:00:19;;;;;;;11.85;7.60;;;-2.40;99.90;;;;;;5052250;28;20073;-79
2022/12/18 12:03:19;;;;;;;17.23;8.07;;;-2.30;99.90;;;;;;5049600;28;20387;-79
2022/12/18 12:05:56;;;;;;;18.63;8.25;;;-2.30;99.90;;;;;;5065610;28;20053;-81
2022/12/18 12:08:58;;;;;;;17.77;8.20;;;-2.30;99.90;;;;;;5052753;28;20487;-81
2022/12/18 12:11:53;;;;;;;14.15;7.72;;;-2.20;99.90;;;;;;5034599;28;20045;-81
2022/12/18 12:14:28;;;;;;;11.43;7.32;;;-2.20;99.90;;;;;;5041971;28;20081;-78
2022/12/18 12:16:59;;;;;;;13.38;7.60;;;-2.10;99.90;;;;;;5028801;28;20057;-81
2022/12/18 12:19:58;;;;;;;15.80;8.00;;;-2.10;99.90;;;;;;5054202;28;20040;-80
2022/12/18 12:22:43;;;;;;;14.82;7.55;;;-2.10;99.90;;;;;;5036463;28;20124;-78
2022/12/18 12:25:08;;;;;;;14.50;8.40;;;-2.10;99.90;;;;;;5038069;28;20045;-80
2022/12/18 12:28:10;;;;;;;13.40;7.45;;;-2.00;99.90;;;;;;5047389;28;20048;-81
2022/12/18 12:31:10;;;;;;;12.60;7.35;;;-2.00;99.90;;;;;;5031432;28;20045;-79
2022/12/18 12:34:06;;;;;;;11.18;6.68;;;-2.00;99.90;;;;;;5047505;28;20045;-77
2022/12/18 12:36:52;;;;;;;13.18;7.88;;;-1.90;99.90;;;;;;5051132;28;20511;-80
2022/12/18 12:39:24;;;;;;;13.98;8.10;;;-1.80;99.90;;;;;;5046508;28;20500;-79
2022/12/18 12:44:48;;;;;;;11.43;7.00;;;-1.80;99.90;;;;;;5033608;28;20033;-78
2022/12/18 12:47:22;;;;;;;13.30;7.30;;;-1.70;99.90;;;;;;5051505;28;20136;-80
2022/12/18 12:49:49;;;;;;;13.10;6.10;;;-1.70;99.90;;;;;;5011591;28;20037;-80
2022/12/18 12:52:43;;;;;;;13.52;7.22;;;-1.70;99.90;;;;;;5048795;28;20620;-81
2022/12/18 12:55:17;;;;;;;11.52;6.85;;;-1.70;99.90;;;;;;5032070;28;20048;-80
2022/12/18 12:58:14;;;;;;;13.93;7.30;;;-1.60;99.90;;;;;;5035697;28;20045;-80
2022/12/18 13:01:05;;;;;;;12.70;7.03;;;-1.60;99.90;;;;;;5036093;28;20136;-79
2022/12/18 13:03:56;;;;;;;11.98;6.60;;;-1.60;99.90;;;;;;5046820;28;20057;-79
2022/12/18 13:06:27;;;;;;;11.38;6.65;;;-1.60;99.90;;;;;;5024574;28;20060;-78
2022/12/18 13:08:56;;;;;;;15.85;6.70;;;-1.50;99.90;;;;;;5040506;28;20071;-79
2022/12/18 13:14:28;;;;;;;13.20;6.78;;;-1.50;99.90;;;;;;5065347;28;20042;-79
2022/12/18 13:17:25;;;;;;;11.05;6.85;;;-1.40;99.90;;;;;;5014978;28;20065;-80